Time;durP1;ratioP1;P1;durP2;ratioP2;P2;SDS_P1;SDS_P2;PMS_P1;PMS_P2;Temp;Humidity;BMP_temperature;BMP_pressure;BME280_temperature;BME280_humidity;BME280_pressure;Samples;Min_cycle;Max_cycle;Signal;HPM_P1;HPM_P2
2023/01/06 00:00:17;;;;;;;1.90;1.80;;;10.30;99.90;;;;;;4985564;28;20474;-69
2023/01/06 00:02:44;;;;;;;2.03;1.80;;;10.30;99.90;;;;;;4987831;28;20561;-69
2023/01/06 00:05:09;;;;;;;2.20;2.00;;;10.30;99.90;;;;;;4988456;28;20267;-69
2023/01/06 00:07:35;;;;;;;1.90;1.80;;;10.30;99.90;;;;;;4992142;28;20521;-69
2023/01/06 00:10:00;;;;;;;2.53;2.33;;;10.20;99.90;;;;;;4989306;28;20218;-69
2023/01/06 00:12:26;;;;;;;2.73;2.10;;;10.20;99.90;;;;;;4987719;28;20187;-69
2023/01/06 00:14:52;;;;;;;2.13;1.60;;;10.20;99.90;;;;;;4988180;28;20585;-69
2023/01/06 00:17:17;;;;;;;1.43;1.33;;;10.20;99.90;;;;;;4988505;28;20194;-69
2023/01/06 00:19:43;;;;;;;2.13;1.70;;;10.20;99.90;;;;;;4990037;28;20213;-69
2023/01/06 00:22:09;;;;;;;3.17;1.80;;;10.10;99.90;;;;;;4991983;28;20689;-69
2023/01/06 00:24:34;;;;;;;1.87;1.73;;;10.10;99.90;;;;;;4992063;28;20254;-69
2023/01/06 00:27:00;;;;;;;2.27;1.90;;;10.10;99.90;;;;;;4991866;28;20505;-71
2023/01/06 00:29:26;;;;;;;2.70;1.63;;;10.10;99.90;;;;;;4991865;28;20689;-70
2023/01/06 00:31:51;;;;;;;3.23;2.17;;;10.10;99.90;;;;;;4992002;28;20705;-70
2023/01/06 00:34:17;;;;;;;2.50;1.67;;;10.10;99.90;;;;;;4991898;28;20203;-70
2023/01/06 00:36:42;;;;;;;2.67;1.43;;;10.10;99.90;;;;;;4991652;28;20207;-70
2023/01/06 00:39:11;;;;;;;1.77;1.63;;;10.10;99.90;;;;;;4995069;28;20638;-70
2023/01/06 00:44:21;;;;;;;3.47;1.60;;;10.00;99.90;;;;;;4995133;28;20430;-70
2023/01/06 00:46:46;;;;;;;3.33;1.97;;;10.00;99.90;;;;;;4995613;28;20423;-72
2023/01/06 00:49:12;;;;;;;2.20;1.60;;;10.00;99.90;;;;;;4995070;28;20179;-72
2023/01/06 00:51:39;;;;;;;1.70;1.60;;;10.00;99.90;;;;;;4995404;28;20214;-72
2023/01/06 00:54:06;;;;;;;1.60;1.50;;;10.00;99.90;;;;;;4995588;28;20229;-71
2023/01/06 00:56:34;;;;;;;3.83;1.60;;;10.00;99.90;;;;;;4995218;28;20453;-70
2023/01/06 00:59:01;;;;;;;1.40;1.30;;;9.90;99.90;;;;;;4994867;28;20445;-71
2023/01/06 01:01:26;;;;;;;1.40;1.30;;;10.00;99.90;;;;;;4994808;28;20477;-71
2023/01/06 01:03:52;;;;;;;1.70;1.20;;;10.00;99.90;;;;;;4995634;28;20896;-71
2023/01/06 01:06:17;;;;;;;2.07;1.87;;;10.00;99.90;;;;;;4995157;28;20175;-71
2023/01/06 01:08:43;;;;;;;1.47;1.23;;;9.90;99.90;;;;;;4995067;28;20176;-70
2023/01/06 01:12:08;;;;;;;1.93;1.73;;;9.90;99.90;;;;;;4994552;28;20223;-71
2023/01/06 01:13:56;;;;;;;2.03;1.80;;;9.90;99.90;;;;;;4989952;28;20210;-71
2023/01/06 01:16:22;;;;;;;2.53;1.30;;;9.90;99.90;;;;;;4995050;28;20466;-71
2023/01/06 01:18:47;;;;;;;2.27;1.73;;;9.90;99.90;;;;;;4994508;28;20191;-71
2023/01/06 01:21:13;;;;;;;2.57;1.80;;;9.90;99.90;;;;;;4994421;28;20207;-71
2023/01/06 01:23:38;;;;;;;3.63;2.00;;;9.90;99.90;;;;;;4994993;28;20176;-70
2023/01/06 01:26:04;;;;;;;1.73;1.63;;;9.90;99.90;;;;;;4994609;28;20246;-71
2023/01/06 01:28:29;;;;;;;2.50;1.90;;;9.80;99.90;;;;;;4994299;28;20223;-71
2023/01/06 01:30:59;;;;;;;2.17;1.97;;;9.80;99.90;;;;;;4994971;28;20263;-71
2023/01/06 01:33:24;;;;;;;4.57;2.20;;;9.80;99.90;;;;;;4994879;28;20698;-71
2023/01/06 01:35:50;;;;;;;1.80;1.70;;;9.80;99.90;;;;;;4994703;28;20443;-71
2023/01/06 01:38:15;;;;;;;3.10;2.33;;;9.80;99.90;;;;;;4994392;28;20183;-71
2023/01/06 01:40:49;;;;;;;2.87;1.80;;;9.80;99.90;;;;;;4994183;28;20566;-71
2023/01/06 01:43:15;;;;;;;2.17;2.00;;;9.80;99.90;;;;;;4994668;28;20187;-71
2023/01/06 01:45:44;;;;;;;1.83;1.63;;;9.90;99.90;;;;;;4994178;28;20928;-71
2023/01/06 01:48:18;;;;;;;2.13;1.63;;;9.90;99.90;;;;;;4994260;28;20866;-71
2023/01/06 01:50:51;;;;;;;3.17;2.07;;;9.80;99.90;;;;;;4993108;28;20454;-71
2023/01/06 01:53:30;;;;;;;1.77;1.67;;;9.80;99.90;;;;;;4994578;28;20441;-71
2023/01/06 01:55:59;;;;;;;2.37;1.60;;;9.80;99.90;;;;;;4994442;28;20445;-71
2023/01/06 01:58:32;;;;;;;7.17;1.57;;;9.90;99.90;;;;;;4993847;28;20438;-71
2023/01/06 02:00:57;;;;;;;4.90;3.43;;;9.90;99.90;;;;;;4994128;28;20470;-71
2023/01/06 02:03:25;;;;;;;3.33;2.47;;;9.90;99.90;;;;;;4993932;28;20963;-71
2023/01/06 02:05:56;;;;;;;2.30;1.63;;;9.90;99.90;;;;;;4993174;28;20203;-71
2023/01/06 02:08:35;;;;;;;2.00;1.80;;;9.90;99.90;;;;;;4998024;28;20435;-71
2023/01/06 02:11:02;;;;;;;2.40;1.80;;;10.00;99.90;;;;;;5000578;28;20485;-71
2023/01/06 02:13:29;;;;;;;2.00;1.80;;;10.00;99.90;;;;;;4994093;28;20439;-71
2023/01/06 02:16:09;;;;;;;3.07;1.20;;;10.00;99.90;;;;;;4993519;28;20435;-71
2023/01/06 02:18:55;;;;;;;2.87;1.90;;;10.10;99.90;;;;;;4993666;28;20422;-71
2023/01/06 02:21:45;;;;;;;1.57;1.40;;;10.10;99.90;;;;;;4993387;28;20496;-71
2023/01/06 02:24:35;;;;;;;2.90;2.00;;;10.10;99.90;;;;;;4993835;28;20501;-72
2023/01/06 02:27:25;;;;;;;2.50;1.80;;;10.10;99.90;;;;;;4993431;28;20458;-72
2023/01/06 02:30:09;;;;;;;2.30;1.80;;;10.10;99.90;;;;;;4993625;28;20521;-71
2023/01/06 02:32:42;;;;;;;1.60;1.50;;;10.10;99.90;;;;;;4993066;28;20434;-71
2023/01/06 02:35:36;;;;;;;3.60;3.10;;;10.10;99.90;;;;;;4993408;28;20999;-69
2023/01/06 02:38:28;;;;;;;1.80;1.70;;;10.10;99.90;;;;;;4993214;28;20458;-69
2023/01/06 02:41:07;;;;;;;2.90;1.80;;;10.00;99.90;;;;;;4993127;28;20466;-69
2023/01/06 02:43:48;;;;;;;4.33;2.00;;;10.10;99.90;;;;;;4993231;28;20456;-69
2023/01/06 02:46:25;;;;;;;2.30;1.80;;;10.00;99.90;;;;;;4993344;28;20833;-69
2023/01/06 02:48:58;;;;;;;1.33;1.23;;;10.10;99.90;;;;;;4992877;28;20434;-69
2023/01/06 02:51:51;;;;;;;2.63;1.97;;;10.10;99.90;;;;;;4975047;28;20460;-70
2023/01/06 02:54:45;;;;;;;1.97;1.60;;;10.10;99.90;;;;;;4971949;28;20434;-70
2023/01/06 02:57:24;;;;;;;2.80;2.33;;;10.10;99.90;;;;;;4993290;28;20470;-70
2023/01/06 03:00:02;;;;;;;2.37;2.13;;;10.20;99.90;;;;;;4992565;28;20469;-70
2023/01/06 03:02:29;;;;;;;2.90;1.90;;;10.20;99.90;;;;;;4992815;28;20434;-70
2023/01/06 03:04:57;;;;;;;2.10;1.60;;;10.20;99.90;;;;;;4992805;28;20437;-71
2023/01/06 03:07:24;;;;;;;2.80;1.60;;;10.20;99.90;;;;;;4992996;28;20435;-70
2023/01/06 03:09:52;;;;;;;1.90;1.67;;;10.20;99.90;;;;;;4992476;28;20960;-70
2023/01/06 03:12:28;;;;;;;4.00;1.70;;;10.20;99.90;;;;;;4992612;28;20446;-70
2023/01/06 03:14:55;;;;;;;1.83;1.73;;;10.10;99.90;;;;;;4978879;28;20466;-70
2023/01/06 03:17:20;;;;;;;1.60;1.50;;;10.10;99.90;;;;;;4993071;28;20465;-70
2023/01/06 03:19:46;;;;;;;1.50;1.40;;;10.10;99.90;;;;;;4992283;28;20431;-69
2023/01/06 03:22:13;;;;;;;2.00;1.50;;;10.20;99.90;;;;;;4992351;28;20211;-70
2023/01/06 03:24:38;;;;;;;1.30;1.20;;;10.20;99.90;;;;;;4992977;28;20203;-70
2023/01/06 03:27:06;;;;;;;1.60;1.50;;;10.10;99.90;;;;;;4992759;28;20430;-70
2023/01/06 03:29:31;;;;;;;2.00;1.80;;;10.10;99.90;;;;;;4992291;28;20441;-69
2023/01/06 03:32:00;;;;;;;1.97;1.67;;;10.10;99.90;;;;;;4992237;28;20435;-69
2023/01/06 03:34:55;;;;;;;1.03;1.00;;;10.00;99.90;;;;;;4992459;28;20261;-70
2023/01/06 03:37:35;;;;;;;1.73;1.30;;;9.90;99.90;;;;;;4992091;28;20445;-70
2023/01/06 03:40:06;;;;;;;1.47;1.13;;;9.80;99.90;;;;;;4994865;28;20544;-70
2023/01/06 03:45:37;;;;;;;2.07;1.40;;;9.70;99.90;;;;;;5001417;28;20499;-70
2023/01/06 03:48:03;;;;;;;1.57;1.20;;;9.60;99.90;;;;;;4992147;28;20447;-70
2023/01/06 03:50:35;;;;;;;1.80;1.27;;;9.50;99.90;;;;;;4991978;28;20977;-70
2023/01/06 03:53:40;;;;;;;1.30;1.20;;;9.50;99.90;;;;;;4992477;28;20183;-70
2023/01/06 03:56:12;;;;;;;5.23;1.63;;;9.40;99.90;;;;;;4992296;28;20438;-70
2023/01/06 03:58:39;;;;;;;1.40;1.30;;;9.40;99.90;;;;;;4992058;28;20441;-70
2023/01/06 04:01:07;;;;;;;1.50;1.40;;;9.40;99.90;;;;;;4991594;28;20466;-70
2023/01/06 04:03:33;;;;;;;2.03;1.60;;;9.40;99.90;;;;;;4992355;28;20431;-72
2023/01/06 04:05:58;;;;;;;2.13;1.60;;;9.40;99.90;;;;;;4992317;28;20465;-72
2023/01/06 04:08:25;;;;;;;2.00;1.80;;;9.40;99.90;;;;;;4991936;28;20419;-72
2023/01/06 04:10:50;;;;;;;1.93;1.83;;;9.50;99.90;;;;;;4991865;28;20207;-72
2023/01/06 04:13:16;;;;;;;1.60;1.50;;;9.50;99.90;;;;;;4994043;28;20437;-72
2023/01/06 04:15:41;;;;;;;1.40;1.30;;;9.60;99.90;;;;;;4996132;28;20183;-72
2023/01/06 04:18:07;;;;;;;2.30;1.63;;;9.60;99.90;;;;;;4995851;28;20180;-72
2023/01/06 04:20:32;;;;;;;2.20;1.67;;;9.70;99.90;;;;;;4995367;28;20572;-71
2023/01/06 04:22:58;;;;;;;1.83;1.73;;;9.70;99.90;;;;;;4992830;28;20194;-70
2023/01/06 04:25:24;;;;;;;1.77;1.67;;;9.60;99.90;;;;;;4995543;28;20684;-72
2023/01/06 04:27:50;;;;;;;1.67;1.50;;;9.60;99.90;;;;;;4983879;28;20183;-70
2023/01/06 04:30:15;;;;;;;1.97;1.77;;;9.50;99.90;;;;;;4975000;28;20451;-70
2023/01/06 04:32:41;;;;;;;1.53;1.43;;;9.40;99.90;;;;;;4987585;28;20175;-69
2023/01/06 04:35:07;;;;;;;3.90;1.63;;;9.40;99.90;;;;;;4981469;28;20177;-70
2023/01/06 04:37:33;;;;;;;1.80;1.50;;;9.30;99.90;;;;;;4994092;28;20195;-68
2023/01/06 04:39:59;;;;;;;1.57;1.47;;;9.20;99.90;;;;;;4995640;28;20446;-69
2023/01/06 04:42:24;;;;;;;1.70;1.60;;;9.10;99.90;;;;;;4995494;28;20603;-69
2023/01/06 04:44:50;;;;;;;1.93;1.50;;;9.10;99.90;;;;;;4998944;28;20206;-69
2023/01/06 04:47:15;;;;;;;2.43;1.70;;;9.00;99.90;;;;;;4998628;28;20186;-70
2023/01/06 04:49:41;;;;;;;2.20;2.07;;;8.90;99.90;;;;;;5012679;28;20236;-71
2023/01/06 04:52:07;;;;;;;2.63;1.43;;;8.90;99.90;;;;;;5015137;28;20175;-70
2023/01/06 04:54:33;;;;;;;1.90;1.70;;;8.90;99.90;;;;;;5003509;28;20210;-71
2023/01/06 04:56:59;;;;;;;1.60;1.50;;;8.90;99.90;;;;;;4995542;28;20426;-70
2023/01/06 04:59:24;;;;;;;2.37;1.63;;;9.00;99.90;;;;;;4995345;28;20792;-70
2023/01/06 05:01:50;;;;;;;1.60;1.50;;;9.10;99.90;;;;;;4995304;28;20250;-72
2023/01/06 05:04:15;;;;;;;3.30;1.80;;;9.10;99.90;;;;;;4995530;28;20172;-71
2023/01/06 05:06:41;;;;;;;2.10;2.00;;;9.20;99.90;;;;;;4995448;28;20174;-71
2023/01/06 05:09:07;;;;;;;3.50;2.20;;;9.20;99.90;;;;;;4995169;28;20756;-71
2023/01/06 05:11:32;;;;;;;2.20;1.93;;;9.30;99.90;;;;;;4995431;28;20592;-72
2023/01/06 05:13:58;;;;;;;2.10;1.90;;;9.30;99.90;;;;;;4995289;28;20182;-71
2023/01/06 05:16:29;;;;;;;2.00;1.80;;;9.30;99.90;;;;;;4995426;28;20186;-71
2023/01/06 05:18:56;;;;;;;2.37;2.17;;;9.40;99.90;;;;;;4994933;28;20288;-71
2023/01/06 05:21:26;;;;;;;3.60;2.23;;;9.30;99.90;;;;;;4995041;28;20494;-71
2023/01/06 05:23:52;;;;;;;2.50;2.30;;;9.30;99.90;;;;;;4993573;28;20426;-71
2023/01/06 05:26:20;;;;;;;2.20;2.00;;;9.30;99.90;;;;;;4994998;28;20466;-71
2023/01/06 05:28:46;;;;;;;2.33;2.10;;;9.30;99.90;;;;;;4994684;28;20422;-71
2023/01/06 05:31:12;;;;;;;3.27;3.07;;;9.40;99.90;;;;;;4994986;28;20442;-71
2023/01/06 05:33:38;;;;;;;2.33;2.17;;;9.40;99.90;;;;;;4994971;28;20449;-71
2023/01/06 05:36:06;;;;;;;3.60;2.50;;;9.30;99.90;;;;;;4995401;28;20597;-71
2023/01/06 05:38:33;;;;;;;2.63;2.43;;;9.30;99.90;;;;;;4994566;28;20240;-70
2023/01/06 05:40:59;;;;;;;2.70;2.50;;;9.30;99.90;;;;;;4994585;28;20967;-71
2023/01/06 05:43:25;;;;;;;3.20;2.33;;;9.30;99.90;;;;;;4994796;28;20457;-70
2023/01/06 05:45:51;;;;;;;3.23;2.50;;;9.30;99.90;;;;;;4994675;28;20782;-71
2023/01/06 05:48:17;;;;;;;2.10;1.87;;;9.30;99.90;;;;;;5004076;28;20444;-70
2023/01/06 05:50:42;;;;;;;2.70;2.43;;;9.30;99.90;;;;;;5004683;28;20484;-71
2023/01/06 05:53:08;;;;;;;2.80;2.23;;;9.30;99.90;;;;;;5002690;28;20587;-72
2023/01/06 05:55:33;;;;;;;2.17;2.07;;;9.30;99.90;;;;;;5000818;28;20183;-71
2023/01/06 05:57:59;;;;;;;3.00;2.80;;;9.30;99.90;;;;;;5001526;28;20526;-72
2023/01/06 06:00:24;;;;;;;2.73;2.50;;;9.30;99.90;;;;;;5004719;28;20665;-71
2023/01/06 06:02:50;;;;;;;2.50;2.30;;;9.30;99.90;;;;;;5000036;28;20186;-71
2023/01/06 06:05:15;;;;;;;2.20;2.00;;;9.30;99.90;;;;;;4994350;28;20263;-72
2023/01/06 06:07:41;;;;;;;2.50;2.23;;;9.30;99.90;;;;;;4994276;28;20629;-70
2023/01/06 06:10:08;;;;;;;2.43;2.00;;;9.30;99.90;;;;;;4993749;28;20206;-71
2023/01/06 06:12:34;;;;;;;2.93;2.17;;;9.30;99.90;;;;;;4994241;28;20164;-71
2023/01/06 06:15:00;;;;;;;2.40;2.20;;;9.30;99.90;;;;;;4994268;28;20435;-70
2023/01/06 06:17:25;;;;;;;2.20;2.10;;;9.30;99.90;;;;;;4984553;28;20431;-70
2023/01/06 06:19:51;;;;;;;2.80;2.30;;;9.40;99.90;;;;;;4987976;28;20195;-71
2023/01/06 06:22:16;;;;;;;2.33;2.13;;;9.40;99.90;;;;;;4994029;28;20677;-71
2023/01/06 06:24:42;;;;;;;1.73;1.63;;;9.40;99.90;;;;;;4993980;28;20237;-71
2023/01/06 06:27:07;;;;;;;2.90;1.90;;;9.40;99.90;;;;;;4994084;28;20172;-71
2023/01/06 06:29:33;;;;;;;2.17;1.83;;;9.40;99.90;;;;;;4993625;28;20638;-71
2023/01/06 06:31:58;;;;;;;1.80;1.67;;;9.30;99.90;;;;;;4993908;28;20182;-71
2023/01/06 06:34:24;;;;;;;2.43;2.23;;;9.30;99.90;;;;;;4993822;28;20207;-71
2023/01/06 06:36:49;;;;;;;2.60;1.90;;;9.20;99.90;;;;;;4992996;28;20266;-70
2023/01/06 06:39:15;;;;;;;2.63;2.03;;;9.20;99.90;;;;;;4993413;28;20222;-71
2023/01/06 06:41:41;;;;;;;2.40;2.20;;;9.20;99.90;;;;;;4993523;28;20206;-71
2023/01/06 06:44:06;;;;;;;2.33;2.13;;;9.20;99.90;;;;;;4993682;28;20178;-71
2023/01/06 06:46:32;;;;;;;1.90;1.70;;;9.30;99.90;;;;;;4993771;28;20172;-71
2023/01/06 06:48:57;;;;;;;2.27;1.90;;;9.30;99.90;;;;;;4993345;28;20535;-71
2023/01/06 06:51:23;;;;;;;4.07;1.77;;;9.30;99.90;;;;;;4993448;28;20277;-71
2023/01/06 06:53:49;;;;;;;1.67;1.57;;;9.30;99.90;;;;;;4993337;28;20222;-70
2023/01/06 06:56:17;;;;;;;2.07;1.90;;;9.30;99.90;;;;;;4993448;28;20623;-71
2023/01/06 06:58:42;;;;;;;2.53;2.33;;;9.30;99.90;;;;;;4993986;28;20442;-71
2023/01/06 07:01:11;;;;;;;2.50;2.30;;;9.30;99.90;;;;;;5005070;28;20484;-72
2023/01/06 07:03:37;;;;;;;3.20;2.90;;;9.30;99.90;;;;;;5012896;28;20179;-71
2023/01/06 07:06:03;;;;;;;4.27;2.90;;;9.40;99.90;;;;;;4995190;28;20912;-72
2023/01/06 07:08:31;;;;;;;3.80;2.40;;;9.40;99.90;;;;;;4992982;28;20171;-71
2023/01/06 07:10:57;;;;;;;5.00;2.33;;;9.50;99.90;;;;;;4992805;28;20517;-71
2023/01/06 07:13:23;;;;;;;3.80;2.33;;;9.50;99.90;;;;;;4993192;28;20419;-71
2023/01/06 07:15:48;;;;;;;2.03;1.83;;;9.50;99.90;;;;;;4993164;28;20549;-72
2023/01/06 07:18:14;;;;;;;1.90;1.80;;;9.50;99.90;;;;;;4992661;28;20249;-72
2023/01/06 07:20:39;;;;;;;2.43;2.23;;;9.50;99.90;;;;;;4992852;28;20262;-71
2023/01/06 07:23:05;;;;;;;2.13;1.80;;;9.60;99.90;;;;;;4993078;28;20234;-71
2023/01/06 07:25:30;;;;;;;2.10;2.00;;;9.60;99.90;;;;;;4992888;28;20199;-71
2023/01/06 07:27:58;;;;;;;2.03;1.30;;;9.70;99.90;;;;;;4992776;28;20254;-70
2023/01/06 07:30:26;;;;;;;3.07;1.97;;;9.70;99.90;;;;;;4992663;28;20572;-71
2023/01/06 07:32:51;;;;;;;2.90;2.60;;;9.70;99.90;;;;;;4992834;28;20429;-71
2023/01/06 07:35:18;;;;;;;3.03;2.50;;;9.70;99.90;;;;;;4992700;28;20415;-72
2023/01/06 07:37:44;;;;;;;2.03;1.70;;;9.80;99.90;;;;;;4991563;28;20172;-71
2023/01/06 07:40:10;;;;;;;3.17;1.70;;;9.90;99.90;;;;;;4992523;28;20447;-71
2023/01/06 07:42:36;;;;;;;3.10;2.50;;;9.90;99.90;;;;;;4992755;28;20429;-71
2023/01/06 07:45:06;;;;;;;2.93;2.27;;;9.90;99.90;;;;;;4992727;28;20415;-71
2023/01/06 07:47:32;;;;;;;2.30;2.10;;;10.00;99.90;;;;;;4992715;28;20626;-72
2023/01/06 07:49:57;;;;;;;2.03;1.20;;;10.10;99.90;;;;;;4992207;28;20437;-71
2023/01/06 07:52:23;;;;;;;1.83;1.70;;;10.10;99.90;;;;;;4992616;28;20171;-71
2023/01/06 07:54:48;;;;;;;3.37;1.63;;;10.10;99.90;;;;;;4992555;28;20668;-72
2023/01/06 07:57:14;;;;;;;1.40;1.30;;;10.10;99.90;;;;;;4992601;28;20722;-71
2023/01/06 07:59:39;;;;;;;1.50;1.40;;;10.10;99.90;;;;;;4994834;28;20210;-70
2023/01/06 08:02:05;;;;;;;1.50;1.40;;;10.10;99.90;;;;;;4994151;28;20210;-71
2023/01/06 08:04:33;;;;;;;1.33;1.23;;;10.10;99.90;;;;;;5002778;28;20184;-71
2023/01/06 08:06:59;;;;;;;2.10;1.10;;;10.10;99.90;;;;;;5003668;28;20443;-71
2023/01/06 08:09:24;;;;;;;1.33;1.10;;;10.10;99.90;;;;;;4999476;28;20438;-71
2023/01/06 08:11:50;;;;;;;1.20;1.13;;;10.20;99.90;;;;;;4998891;28;20229;-71
2023/01/06 08:14:15;;;;;;;1.57;1.43;;;10.20;99.90;;;;;;4992475;28;20222;-71
2023/01/06 08:16:41;;;;;;;0.90;0.90;;;10.30;99.90;;;;;;4992421;28;20180;-71
2023/01/06 08:19:06;;;;;;;1.93;1.57;;;10.30;99.90;;;;;;4991916;28;20187;-71
2023/01/06 08:21:32;;;;;;;1.70;1.20;;;10.30;99.90;;;;;;4992278;28;20240;-70
2023/01/06 08:23:58;;;;;;;1.87;1.30;;;10.30;99.90;;;;;;4992341;28;20638;-71
2023/01/06 08:26:23;;;;;;;1.70;1.60;;;10.50;99.90;;;;;;4992294;28;20176;-72
2023/01/06 08:28:49;;;;;;;1.67;1.57;;;10.50;99.90;;;;;;4992069;28;20168;-71
2023/01/06 08:31:18;;;;;;;2.27;2.07;;;10.60;99.90;;;;;;4992245;28;20286;-70
2023/01/06 08:33:44;;;;;;;1.60;1.50;;;10.60;99.90;;;;;;4992234;28;20422;-71
2023/01/06 08:36:13;;;;;;;2.20;1.60;;;10.50;99.90;;;;;;4992060;28;20427;-71
2023/01/06 08:38:39;;;;;;;2.20;1.57;;;10.50;99.90;;;;;;4991953;28;20434;-72
2023/01/06 08:41:05;;;;;;;2.40;1.97;;;10.50;99.90;;;;;;4992020;28;20496;-71
2023/01/06 08:43:31;;;;;;;2.67;2.47;;;10.30;99.90;;;;;;4992303;28;20490;-71
2023/01/06 08:46:01;;;;;;;2.10;1.93;;;10.20;99.90;;;;;;4992140;28;20506;-70
2023/01/06 08:48:27;;;;;;;2.20;1.90;;;10.10;99.90;;;;;;4991915;28;20206;-71
2023/01/06 08:50:52;;;;;;;2.10;2.00;;;10.10;99.90;;;;;;4992096;28;20481;-71
2023/01/06 08:53:18;;;;;;;3.17;2.60;;;10.00;99.90;;;;;;4991953;28;20462;-71
2023/01/06 08:55:43;;;;;;;1.93;1.83;;;10.00;99.90;;;;;;4990768;28;20542;-71
2023/01/06 08:58:09;;;;;;;3.60;2.60;;;10.00;99.90;;;;;;4992176;28;20569;-70
2023/01/06 09:00:36;;;;;;;3.27;2.97;;;9.90;99.90;;;;;;4995361;28;20203;-70
2023/01/06 09:03:02;;;;;;;2.40;2.20;;;9.90;99.90;;;;;;4995529;28;20908;-70
2023/01/06 09:05:27;;;;;;;1.93;1.60;;;9.90;99.90;;;;;;4995588;28;20423;-71
2023/01/06 09:07:53;;;;;;;1.30;1.20;;;9.90;99.90;;;;;;4995347;28;20226;-72
2023/01/06 09:10:19;;;;;;;1.73;1.63;;;10.00;99.90;;;;;;4995134;28;20249;-71
2023/01/06 09:12:45;;;;;;;1.40;1.30;;;10.00;99.90;;;;;;5006148;28;20469;-71
2023/01/06 09:15:11;;;;;;;1.43;1.27;;;10.10;99.90;;;;;;4997062;28;20552;-72
2023/01/06 09:17:37;;;;;;;1.10;1.00;;;10.00;99.90;;;;;;5002109;28;20171;-71
2023/01/06 09:20:03;;;;;;;1.00;0.90;;;10.00;99.90;;;;;;5001943;28;20470;-71
2023/01/06 09:22:29;;;;;;;0.93;0.83;;;10.10;99.90;;;;;;5004578;28;20617;-71
2023/01/06 09:24:54;;;;;;;1.33;1.23;;;10.00;99.90;;;;;;5005499;28;20513;-72
2023/01/06 09:27:20;;;;;;;2.47;1.20;;;10.10;99.90;;;;;;5005734;28;20179;-70
2023/01/06 09:29:45;;;;;;;1.63;1.00;;;10.10;99.90;;;;;;5011818;28;20246;-71
2023/01/06 09:32:11;;;;;;;1.27;0.90;;;10.20;99.90;;;;;;4995134;28;20172;-72
2023/01/06 09:34:36;;;;;;;2.20;1.10;;;10.20;99.90;;;;;;4992166;28;20965;-71
2023/01/06 09:37:02;;;;;;;1.03;0.93;;;10.30;99.90;;;;;;4975613;28;20176;-70
2023/01/06 09:39:27;;;;;;;1.27;1.13;;;10.60;99.90;;;;;;4975124;28;20538;-71
2023/01/06 09:42:09;;;;;;;2.07;1.90;;;10.80;99.90;;;;;;4977169;28;20287;-70
2023/01/06 09:44:51;;;;;;;1.43;1.23;;;11.00;99.90;;;;;;4994291;28;20179;-72
2023/01/06 09:47:21;;;;;;;1.20;1.10;;;11.00;99.90;;;;;;4994809;28;20808;-71
2023/01/06 09:49:56;;;;;;;1.47;1.30;;;11.10;99.90;;;;;;4994368;28;20419;-71
2023/01/06 09:52:33;;;;;;;1.40;1.30;;;11.30;99.90;;;;;;4993526;28;20421;-71
2023/01/06 09:55:03;;;;;;;1.20;1.10;;;11.70;99.90;;;;;;4993319;28;20438;-72
2023/01/06 09:57:45;;;;;;;1.53;1.43;;;12.10;99.90;;;;;;4994692;28;20946;-71
2023/01/06 10:00:49;;;;;;;1.03;0.87;;;12.60;99.90;;;;;;4994209;28;20442;-71
2023/01/06 10:03:17;;;;;;;1.17;0.80;;;13.20;99.90;;;;;;4994512;28;20791;-71
2023/01/06 10:06:13;;;;;;;1.83;1.50;;;15.40;99.90;;;;;;4994459;28;20415;-72
2023/01/06 10:09:05;;;;;;;2.60;1.50;;;17.00;99.90;;;;;;4988493;28;20469;-71
2023/01/06 10:11:53;;;;;;;1.70;1.60;;;16.60;99.90;;;;;;4993114;28;20449;-72
2023/01/06 10:14:38;;;;;;;2.03;1.93;;;16.30;99.90;;;;;;4994289;28;20411;-71
2023/01/06 10:17:26;;;;;;;2.60;1.73;;;16.30;99.90;;;;;;4994209;28;20424;-71
2023/01/06 10:20:21;;;;;;;1.00;0.90;;;16.50;99.90;;;;;;4993623;28;20435;-71
2023/01/06 10:23:01;;;;;;;1.77;1.43;;;16.20;99.90;;;;;;4994138;28;20437;-71
2023/01/06 10:25:37;;;;;;;4.73;3.93;;;16.40;99.90;;;;;;4993969;28;20422;-71
2023/01/06 10:28:15;;;;;;;0.93;0.90;;;16.00;99.90;;;;;;4997421;28;20803;-72
2023/01/06 10:30:49;;;;;;;1.30;1.20;;;14.80;99.90;;;;;;5000465;28;20445;-71
2023/01/06 10:33:23;;;;;;;3.27;1.00;;;13.70;99.90;;;;;;5012373;28;20480;-72
2023/01/06 10:35:56;;;;;;;0.80;0.73;;;13.30;99.90;;;;;;4993754;28;20919;-72
2023/01/06 10:38:29;;;;;;;1.10;0.80;;;13.00;99.90;;;;;;4993583;28;20901;-71
2023/01/06 10:41:18;;;;;;;0.87;0.70;;;13.00;99.90;;;;;;4993624;28;21042;-71
2023/01/06 10:43:44;;;;;;;0.70;0.70;;;14.20;99.90;;;;;;4993763;28;20455;-72
2023/01/06 10:46:10;;;;;;;0.70;0.63;;;15.00;99.90;;;;;;4991576;28;20961;-72
2023/01/06 10:48:37;;;;;;;2.10;1.57;;;15.00;99.90;;;;;;4973950;28;20525;-71
2023/01/06 10:51:36;;;;;;;1.20;1.10;;;16.40;99.90;;;;;;4981318;28;20231;-71
2023/01/06 10:54:09;;;;;;;2.00;1.10;;;17.10;99.90;;;;;;4993538;28;20414;-72
2023/01/06 10:56:37;;;;;;;1.00;0.90;;;18.70;99.90;;;;;;4993483;28;20817;-71
2023/01/06 10:59:08;;;;;;;1.40;1.30;;;20.40;99.90;;;;;;4993183;28;20429;-71
2023/01/06 11:01:37;;;;;;;1.03;1.00;;;21.60;99.90;;;;;;4993200;28;20479;-71
2023/01/06 11:04:11;;;;;;;1.27;1.10;;;20.90;99.90;;;;;;4993296;28;20427;-71
2023/01/06 11:06:41;;;;;;;0.90;0.90;;;17.60;99.90;;;;;;4993237;28;20978;-71
2023/01/06 11:09:32;;;;;;;0.73;0.73;;;15.90;99.90;;;;;;4992962;28;20430;-70
2023/01/06 11:12:01;;;;;;;0.60;0.57;;;14.70;99.90;;;;;;4987700;28;20438;-72
2023/01/06 11:14:32;;;;;;;0.70;0.70;;;13.60;99.90;;;;;;4993147;28;20423;-72
2023/01/06 11:17:02;;;;;;;7.33;2.60;;;13.20;99.90;;;;;;4993192;28;20916;-72
2023/01/06 11:19:34;;;;;;;0.97;0.90;;;13.20;99.90;;;;;;4992716;28;20421;-71
2023/01/06 11:22:00;;;;;;;1.17;1.07;;;13.10;99.90;;;;;;4992738;28;20458;-72
2023/01/06 11:24:26;;;;;;;1.57;1.20;;;13.00;99.90;;;;;;4992727;28;20780;-72
2023/01/06 11:27:00;;;;;;;1.00;0.90;;;12.80;99.90;;;;;;4992932;28;20206;-72
2023/01/06 11:29:31;;;;;;;0.70;0.70;;;12.60;99.90;;;;;;4992728;28;20171;-72
2023/01/06 11:32:23;;;;;;;1.40;0.60;;;12.60;99.90;;;;;;4992951;28;20438;-71
2023/01/06 11:35:00;;;;;;;0.80;0.80;;;12.60;99.90;;;;;;4982963;28;20488;-72
2023/01/06 11:37:37;;;;;;;0.90;0.90;;;12.40;99.90;;;;;;5004266;28;20489;-71
2023/01/06 11:40:16;;;;;;;1.60;1.50;;;12.20;99.90;;;;;;5007491;28;20866;-71
2023/01/06 11:42:41;;;;;;;1.77;1.30;;;12.20;99.90;;;;;;4992612;28;20458;-72
2023/01/06 11:45:27;;;;;;;1.47;1.33;;;12.30;99.90;;;;;;4992707;28;20425;-71
2023/01/06 11:47:52;;;;;;;0.83;0.60;;;12.30;99.90;;;;;;4992948;28;20703;-72
2023/01/06 11:50:19;;;;;;;1.00;0.80;;;12.40;99.90;;;;;;4992299;28;20529;-72
2023/01/06 11:52:58;;;;;;;1.47;0.80;;;12.40;99.90;;;;;;4992649;28;20168;-72
2023/01/06 11:55:26;;;;;;;0.80;0.80;;;12.30;99.90;;;;;;4992565;28;20425;-72
2023/01/06 11:58:10;;;;;;;1.30;0.80;;;12.40;99.90;;;;;;4992610;28;20410;-72
2023/01/06 12:00:54;;;;;;;1.30;0.80;;;12.50;99.90;;;;;;4992119;28;20446;-72
2023/01/06 12:03:22;;;;;;;1.13;1.03;;;12.60;99.90;;;;;;4992538;28;20900;-72
2023/01/06 12:06:12;;;;;;;1.40;1.10;;;12.60;99.90;;;;;;4992600;28;20415;-71
2023/01/06 12:08:45;;;;;;;1.53;1.43;;;12.50;99.90;;;;;;4992312;28;20764;-71
2023/01/06 12:11:30;;;;;;;1.20;0.97;;;12.40;99.90;;;;;;4992251;28;20493;-72
2023/01/06 12:13:56;;;;;;;0.90;0.90;;;12.50;99.90;;;;;;4992521;28;20930;-72
2023/01/06 12:16:56;;;;;;;6.43;4.80;;;12.60;99.90;;;;;;4992264;28;20427;-72
2023/01/06 12:19:34;;;;;;;1.80;1.60;;;12.60;99.90;;;;;;4951034;28;20607;-72
2023/01/06 12:22:01;;;;;;;1.37;1.27;;;12.70;99.90;;;;;;4987306;28;20472;-72
2023/01/06 12:24:29;;;;;;;2.10;1.43;;;12.80;99.90;;;;;;4992375;28;20481;-72
2023/01/06 12:26:55;;;;;;;1.50;1.40;;;12.90;99.90;;;;;;4992353;28;20429;-72
2023/01/06 12:29:21;;;;;;;1.27;1.17;;;12.80;99.90;;;;;;4991961;28;20425;-72
2023/01/06 12:32:19;;;;;;;1.80;1.53;;;12.80;99.90;;;;;;4992287;28;20442;-72
2023/01/06 12:34:49;;;;;;;3.00;2.70;;;12.90;99.90;;;;;;4977705;28;20439;-72
2023/01/06 12:37:30;;;;;;;1.70;1.60;;;12.90;99.90;;;;;;4994910;28;20940;-72
2023/01/06 12:40:35;;;;;;;1.93;0.70;;;13.10;99.90;;;;;;5011281;28;20450;-71
2023/01/06 12:43:23;;;;;;;1.37;1.27;;;13.10;99.90;;;;;;5005861;28;20797;-72
2023/01/06 12:46:04;;;;;;;1.30;1.20;;;13.00;99.90;;;;;;4995904;28;20403;-71
2023/01/06 12:48:55;;;;;;;1.10;1.10;;;12.80;99.90;;;;;;4995584;28;20407;-72
2023/01/06 12:51:37;;;;;;;1.43;1.33;;;12.60;99.90;;;;;;4995676;28;20442;-72
2023/01/06 12:54:33;;;;;;;2.60;2.40;;;12.50;99.90;;;;;;4995688;28;20414;-71
2023/01/06 12:57:16;;;;;;;3.67;2.80;;;12.30;99.90;;;;;;4995688;28;20506;-72
2023/01/06 13:00:00;;;;;;;8.83;7.23;;;12.20;99.90;;;;;;4995400;28;20931;-72
2023/01/06 13:02:44;;;;;;;9.63;6.73;;;12.10;99.90;;;;;;4995359;28;20450;-72
2023/01/06 13:05:36;;;;;;;10.97;7.20;;;12.10;99.90;;;;;;4994408;28;20791;-72
2023/01/06 13:08:34;;;;;;;6.23;5.63;;;12.30;99.90;;;;;;4995000;28;20469;-72
2023/01/06 13:11:18;;;;;;;7.63;6.37;;;12.30;99.90;;;;;;4995248;28;20458;-72
2023/01/06 13:13:48;;;;;;;10.80;6.63;;;12.30;99.90;;;;;;4995387;28;20411;-72